sensor_id;sensor_type;location;lat;lon;timestamp;pressure;altitude;pressure_sealevel;temperature;humidity
41230;BME280;26964;50.428;19.218;2023-08-06T00:00:11;1006.4;;;18.2;82.1
41230;BME280;26964;50.428;19.218;2023-08-06T00:01:01;1006.3;;;18.2;82.1
41230;BME280;26964;50.428;19.218;2023-08-06T00:02:01;1006.2;;;18.2;82.1
41230;BME280;26964;50.428;19.218;2023-08-06T00:03:01;1006.0;;;18.2;82.1
41230;BME280;26964;50.428;19.218;2023-08-06T00:04:01;1005.9;;;18.2;82.1
41230;BME280;26964;50.428;19.218;2023-08-06T00:05:01;1005.8;;;18.2;82.1
41230;BME280;26964;50.428;19.218;2023-08-06T00:06:01;1005.7;;;18.2;82.1
41230;BME280;26964;50.428;19.218;2023-08-06T00:07:02;1005.7;;;18.2;82.1
41230;BME280;26964;50.428;19.218;2023-08-06T00:08:02;1005.7;;;18.2;82.1
41230;BME280;26964;50.428;19.218;2023-08-06T00:09:01;1005.6;;;18.2;82.1
41230;BME280;26964;50.428;19.218;2023-08-06T00:10:01;1005.5;;;18.3;82.1
41230;BME280;26964;50.428;19.218;2023-08-06T00:11:02;1005.4;;;18.3;82.1
41230;BME280;26964;50.428;19.218;2023-08-06T00:12:02;1005.3;;;18.2;82.1
41230;BME280;26964;50.428;19.218;2023-08-06T00:13:01;1005.2;;;18.3;82.1
41230;BME280;26964;50.428;19.218;2023-08-06T00:14:01;1005.0;;;18.2;82.1
41230;BME280;26964;50.428;19.218;2023-08-06T00:15:01;1004.8;;;18.2;82.2
41230;BME280;26964;50.428;19.218;2023-08-06T00:17:01;1004.7;;;18.2;82.2
41230;BME280;26964;50.428;19.218;2023-08-06T00:18:01;1004.7;;;18.2;82.2
41230;BME280;26964;50.428;19.218;2023-08-06T00:19:01;1004.9;;;18.2;82.2
41230;BME280;26964;50.428;19.218;2023-08-06T00:20:01;1004.9;;;18.2;82.2
41230;BME280;26964;50.428;19.218;2023-08-06T00:21:01;1004.8;;;18.2;82.2
41230;BME280;26964;50.428;19.218;2023-08-06T00:22:01;1004.7;;;18.2;82.2
41230;BME280;26964;50.428;19.218;2023-08-06T00:23:01;1004.8;;;18.2;82.2
41230;BME280;26964;50.428;19.218;2023-08-06T00:24:01;1004.8;;;18.2;82.2
41230;BME280;26964;50.428;19.218;2023-08-06T00:25:01;1004.8;;;18.2;82.2
41230;BME280;26964;50.428;19.218;2023-08-06T00:26:01;1004.8;;;18.2;82.2
41230;BME280;26964;50.428;19.218;2023-08-06T00:27:01;1004.9;;;18.2;82.2
41230;BME280;26964;50.428;19.218;2023-08-06T00:28:01;1004.9;;;18.2;82.2
41230;BME280;26964;50.428;19.218;2023-08-06T00:29:01;1004.8;;;18.2;82.2
41230;BME280;26964;50.428;19.218;2023-08-06T00:30:01;1004.7;;;18.2;82.2
41230;BME280;26964;50.428;19.218;2023-08-06T00:31:02;1004.9;;;18.2;82.2
41230;BME280;26964;50.428;19.218;2023-08-06T00:32:01;1004.9;;;18.2;82.2
41230;BME280;26964;50.428;19.218;2023-08-06T00:33:01;1004.9;;;18.2;82.2
41230;BME280;26964;50.428;19.218;2023-08-06T00:34:01;1004.8;;;18.2;82.2
41230;BME280;26964;50.428;19.218;2023-08-06T00:35:01;1004.7;;;18.2;82.2
41230;BME280;26964;50.428;19.218;2023-08-06T00:36:01;1004.5;;;18.2;82.2
41230;BME280;26964;50.428;19.218;2023-08-06T00:37:01;1004.3;;;18.2;82.2
41230;BME280;26964;50.428;19.218;2023-08-06T00:38:02;1004.3;;;18.2;82.4
41230;BME280;26964;50.428;19.218;2023-08-06T00:39:01;1004.2;;;18.2;82.3
41230;BME280;26964;50.428;19.218;2023-08-06T00:40:02;1004.0;;;18.2;82.3
41230;BME280;26964;50.428;19.218;2023-08-06T00:41:01;1004.2;;;18.2;82.3
41230;BME280;26964;50.428;19.218;2023-08-06T00:42:01;1004.2;;;18.1;82.5
41230;BME280;26964;50.428;19.218;2023-08-06T00:43:01;1004.0;;;18.1;82.5
41230;BME280;26964;50.428;19.218;2023-08-06T00:44:01;1003.8;;;18.1;82.4
41230;BME280;26964;50.428;19.218;2023-08-06T00:45:01;1003.8;;;18.1;82.6
41230;BME280;26964;50.428;19.218;2023-08-06T00:46:01;1003.7;;;18.1;82.6
41230;BME280;26964;50.428;19.218;2023-08-06T00:47:03;1003.5;;;18.1;82.7
41230;BME280;26964;50.428;19.218;2023-08-06T00:48:02;1003.4;;;18.1;82.7
41230;BME280;26964;50.428;19.218;2023-08-06T00:49:01;1003.5;;;18.1;82.7
41230;BME280;26964;50.428;19.218;2023-08-06T00:50:01;1003.5;;;18.1;82.7
41230;BME280;26964;50.428;19.218;2023-08-06T00:51:01;1003.7;;;18.1;82.7
41230;BME280;26964;50.428;19.218;2023-08-06T00:52:02;1003.7;;;18.1;82.9
41230;BME280;26964;50.428;19.218;2023-08-06T00:53:01;1003.7;;;18.1;83.0
41230;BME280;26964;50.428;19.218;2023-08-06T00:54:02;1003.9;;;18.0;82.9
41230;BME280;26964;50.428;19.218;2023-08-06T00:55:02;1003.9;;;18.0;82.8
41230;BME280;26964;50.428;19.218;2023-08-06T00:56:01;1003.8;;;18.0;82.8
41230;BME280;26964;50.428;19.218;2023-08-06T00:57:02;1003.7;;;18.0;82.9
41230;BME280;26964;50.428;19.218;2023-08-06T00:58:01;1003.7;;;18.0;82.9
41230;BME280;26964;50.428;19.218;2023-08-06T00:59:01;1003.5;;;18.0;83.0
41230;BME280;26964;50.428;19.218;2023-08-06T01:00:02;1003.6;;;18.0;82.9
41230;BME280;26964;50.428;19.218;2023-08-06T01:01:02;1003.7;;;18.0;83.0
41230;BME280;26964;50.428;19.218;2023-08-06T01:02:01;1003.9;;;18.0;82.9
41230;BME280;26964;50.428;19.218;2023-08-06T01:03:01;1003.9;;;18.0;83.0
41230;BME280;26964;50.428;19.218;2023-08-06T01:04:02;1003.8;;;18.0;83.0
41230;BME280;26964;50.428;19.218;2023-08-06T01:05:01;1003.8;;;18.0;82.9
41230;BME280;26964;50.428;19.218;2023-08-06T01:06:01;1003.7;;;18.0;82.8
41230;BME280;26964;50.428;19.218;2023-08-06T01:07:15;1003.7;;;18.0;82.9
41230;BME280;26964;50.428;19.218;2023-08-06T01:09:07;1003.3;;;18.0;82.8
41230;BME280;26964;50.428;19.218;2023-08-06T01:12:06;1002.8;;;18.0;83.0
41230;BME280;26964;50.428;19.218;2023-08-06T01:13:06;1002.7;;;18.0;83.0
41230;BME280;26964;50.428;19.218;2023-08-06T01:14:06;1002.7;;;18.0;83.0
41230;BME280;26964;50.428;19.218;2023-08-06T01:15:06;1003.0;;;18.0;82.9
41230;BME280;26964;50.428;19.218;2023-08-06T01:16:02;1003.3;;;18.0;82.9
41230;BME280;26964;50.428;19.218;2023-08-06T01:17:01;1003.6;;;18.0;82.9
41230;BME280;26964;50.428;19.218;2023-08-06T01:18:01;1003.5;;;18.0;82.9
41230;BME280;26964;50.428;19.218;2023-08-06T01:19:01;1003.6;;;18.0;82.9
41230;BME280;26964;50.428;19.218;2023-08-06T01:20:01;1003.6;;;18.0;82.9
41230;BME280;26964;50.428;19.218;2023-08-06T01:21:01;1003.7;;;18.0;82.9
41230;BME280;26964;50.428;19.218;2023-08-06T01:22:01;1003.7;;;18.0;82.9
41230;BME280;26964;50.428;19.218;2023-08-06T01:23:02;1003.7;;;18.1;82.8
41230;BME280;26964;50.428;19.218;2023-08-06T01:24:01;1003.7;;;18.1;82.9
41230;BME280;26964;50.428;19.218;2023-08-06T01:25:02;1003.5;;;18.1;82.9
41230;BME280;26964;50.428;19.218;2023-08-06T01:26:06;1003.4;;;18.1;82.8
41230;BME280;26964;50.428;19.218;2023-08-06T01:27:06;1003.4;;;18.1;82.8
41230;BME280;26964;50.428;19.218;2023-08-06T01:28:08;1003.3;;;18.1;82.8
41230;BME280;26964;50.428;19.218;2023-08-06T01:29:06;1003.4;;;18.1;82.8
41230;BME280;26964;50.428;19.218;2023-08-06T01:30:06;1003.4;;;18.1;82.8
41230;BME280;26964;50.428;19.218;2023-08-06T01:31:02;1003.2;;;18.1;82.8
41230;BME280;26964;50.428;19.218;2023-08-06T01:32:01;1003.1;;;18.1;82.8
41230;BME280;26964;50.428;19.218;2023-08-06T01:33:05;1003.0;;;18.1;82.8
41230;BME280;26964;50.428;19.218;2023-08-06T01:34:01;1002.8;;;18.1;82.7
41230;BME280;26964;50.428;19.218;2023-08-06T01:35:05;1002.7;;;18.1;82.7
41230;BME280;26964;50.428;19.218;2023-08-06T01:36:01;1002.7;;;18.1;82.7
41230;BME280;26964;50.428;19.218;2023-08-06T01:37:01;1002.8;;;18.1;82.7
41230;BME280;26964;50.428;19.218;2023-08-06T01:38:02;1002.7;;;18.1;82.8
41230;BME280;26964;50.428;19.218;2023-08-06T01:39:01;1002.6;;;18.1;82.8
41230;BME280;26964;50.428;19.218;2023-08-06T01:41:02;1002.5;;;18.1;82.8
41230;BME280;26964;50.428;19.218;2023-08-06T01:42:02;1002.5;;;18.1;82.8
41230;BME280;26964;50.428;19.218;2023-08-06T01:43:01;1002.3;;;18.1;82.8
41230;BME280;26964;50.428;19.218;2023-08-06T01:44:02;1002.4;;;18.1;82.8
41230;BME280;26964;50.428;19.218;2023-08-06T01:45:01;1002.3;;;18.1;82.8
41230;BME280;26964;50.428;19.218;2023-08-06T01:46:02;1002.3;;;18.1;82.8
41230;BME280;26964;50.428;19.218;2023-08-06T01:47:02;1002.2;;;18.1;82.8
41230;BME280;26964;50.428;19.218;2023-08-06T01:48:02;1002.3;;;18.1;82.8
41230;BME280;26964;50.428;19.218;2023-08-06T01:49:01;1002.4;;;18.1;82.8
41230;BME280;26964;50.428;19.218;2023-08-06T01:50:02;1002.3;;;18.1;82.8
41230;BME280;26964;50.428;19.218;2023-08-06T01:51:03;1002.3;;;18.1;82.8
41230;BME280;26964;50.428;19.218;2023-08-06T01:52:01;1002.5;;;18.0;82.8
41230;BME280;26964;50.428;19.218;2023-08-06T01:53:01;1002.5;;;18.0;82.8
41230;BME280;26964;50.428;19.218;2023-08-06T01:54:01;1002.7;;;18.0;82.8
41230;BME280;26964;50.428;19.218;2023-08-06T01:55:01;1002.8;;;18.0;82.8
41230;BME280;26964;50.428;19.218;2023-08-06T01:56:03;1002.9;;;18.1;82.9
41230;BME280;26964;50.428;19.218;2023-08-06T01:57:02;1002.9;;;18.0;82.9
41230;BME280;26964;50.428;19.218;2023-08-06T01:58:02;1002.9;;;18.0;82.9
41230;BME280;26964;50.428;19.218;2023-08-06T01:59:01;1002.9;;;18.0;82.9
41230;BME280;26964;50.428;19.218;2023-08-06T02:00:02;1003.0;;;18.0;82.9
41230;BME280;26964;50.428;19.218;2023-08-06T02:01:01;1003.1;;;18.1;83.0
41230;BME280;26964;50.428;19.218;2023-08-06T02:02:02;1003.1;;;18.0;82.9
41230;BME280;26964;50.428;19.218;2023-08-06T02:03:01;1003.1;;;18.0;82.9
41230;BME280;26964;50.428;19.218;2023-08-06T02:04:01;1003.1;;;18.0;82.9
41230;BME280;26964;50.428;19.218;2023-08-06T02:05:03;1003.0;;;18.1;83.0
41230;BME280;26964;50.428;19.218;2023-08-06T02:06:02;1003.0;;;18.0;82.9
41230;BME280;26964;50.428;19.218;2023-08-06T02:07:02;1003.0;;;18.1;83.0
41230;BME280;26964;50.428;19.218;2023-08-06T02:08:02;1003.0;;;18.1;83.0
41230;BME280;26964;50.428;19.218;2023-08-06T02:09:01;1003.1;;;18.1;83.0
41230;BME280;26964;50.428;19.218;2023-08-06T02:10:01;1003.0;;;18.1;82.9
41230;BME280;26964;50.428;19.218;2023-08-06T02:11:02;1003.0;;;18.1;82.9
41230;BME280;26964;50.428;19.218;2023-08-06T02:12:02;1003.0;;;18.1;82.9
41230;BME280;26964;50.428;19.218;2023-08-06T02:13:01;1002.9;;;18.1;82.9
41230;BME280;26964;50.428;19.218;2023-08-06T02:14:01;1002.9;;;18.1;82.9
41230;BME280;26964;50.428;19.218;2023-08-06T02:15:02;1002.9;;;18.1;82.9
41230;BME280;26964;50.428;19.218;2023-08-06T02:16:02;1003.0;;;18.1;82.9
41230;BME280;26964;50.428;19.218;2023-08-06T02:17:02;1002.9;;;18.1;82.9
41230;BME280;26964;50.428;19.218;2023-08-06T02:18:02;1002.9;;;18.1;82.8
41230;BME280;26964;50.428;19.218;2023-08-06T02:19:01;1002.9;;;18.1;82.8
41230;BME280;26964;50.428;19.218;2023-08-06T02:20:01;1002.9;;;18.1;82.8
41230;BME280;26964;50.428;19.218;2023-08-06T02:21:02;1002.9;;;18.1;82.8
41230;BME280;26964;50.428;19.218;2023-08-06T02:22:02;1002.9;;;18.1;82.8
41230;BME280;26964;50.428;19.218;2023-08-06T02:23:01;1002.9;;;18.1;82.8
41230;BME280;26964;50.428;19.218;2023-08-06T02:24:01;1002.9;;;18.1;82.8
41230;BME280;26964;50.428;19.218;2023-08-06T02:25:01;1002.9;;;18.1;82.8
41230;BME280;26964;50.428;19.218;2023-08-06T02:26:02;1002.9;;;18.1;82.8
41230;BME280;26964;50.428;19.218;2023-08-06T02:27:02;1002.9;;;18.1;82.8
41230;BME280;26964;50.428;19.218;2023-08-06T02:28:02;1002.8;;;18.2;82.8
41230;BME280;26964;50.428;19.218;2023-08-06T02:29:03;1002.8;;;18.2;82.8
41230;BME280;26964;50.428;19.218;2023-08-06T02:30:02;1002.7;;;18.2;82.9
41230;BME280;26964;50.428;19.218;2023-08-06T02:31:01;1002.8;;;18.2;82.8
41230;BME280;26964;50.428;19.218;2023-08-06T02:32:01;1002.8;;;18.2;82.8
41230;BME280;26964;50.428;19.218;2023-08-06T02:33:01;1002.7;;;18.2;82.8
41230;BME280;26964;50.428;19.218;2023-08-06T02:34:01;1002.7;;;18.2;82.8
41230;BME280;26964;50.428;19.218;2023-08-06T02:35:01;1002.8;;;18.2;82.8
41230;BME280;26964;50.428;19.218;2023-08-06T02:36:01;1002.8;;;18.2;82.8
41230;BME280;26964;50.428;19.218;2023-08-06T02:37:02;1002.7;;;18.2;82.8
41230;BME280;26964;50.428;19.218;2023-08-06T02:38:02;1002.7;;;18.2;82.8
41230;BME280;26964;50.428;19.218;2023-08-06T02:39:01;1002.7;;;18.2;82.8
41230;BME280;26964;50.428;19.218;2023-08-06T02:40:01;1002.7;;;18.2;82.7
41230;BME280;26964;50.428;19.218;2023-08-06T02:41:02;1002.7;;;18.2;82.7
41230;BME280;26964;50.428;19.218;2023-08-06T02:42:01;1002.6;;;18.2;82.7
41230;BME280;26964;50.428;19.218;2023-08-06T02:43:01;1002.7;;;18.2;82.7
41230;BME280;26964;50.428;19.218;2023-08-06T02:44:01;1002.7;;;18.2;82.7
41230;BME280;26964;50.428;19.218;2023-08-06T02:45:01;1002.6;;;18.2;82.7
41230;BME280;26964;50.428;19.218;2023-08-06T02:46:01;1002.7;;;18.2;82.7
41230;BME280;26964;50.428;19.218;2023-08-06T02:47:01;1002.7;;;18.2;82.7
41230;BME280;26964;50.428;19.218;2023-08-06T02:48:01;1002.7;;;18.2;82.7
41230;BME280;26964;50.428;19.218;2023-08-06T02:49:01;1002.6;;;18.3;82.7
41230;BME280;26964;50.428;19.218;2023-08-06T02:50:01;1002.6;;;18.3;82.7
41230;BME280;26964;50.428;19.218;2023-08-06T02:51:01;1002.6;;;18.3;82.7
41230;BME280;26964;50.428;19.218;2023-08-06T02:52:02;1002.6;;;18.3;82.8
41230;BME280;26964;50.428;19.218;2023-08-06T02:53:01;1002.6;;;18.3;82.7
41230;BME280;26964;50.428;19.218;2023-08-06T02:54:01;1002.6;;;18.3;82.8
41230;BME280;26964;50.428;19.218;2023-08-06T02:55:01;1002.5;;;18.3;82.7
41230;BME280;26964;50.428;19.218;2023-08-06T02:56:02;1002.5;;;18.3;82.7
41230;BME280;26964;50.428;19.218;2023-08-06T02:57:01;1002.5;;;18.3;82.8
41230;BME280;26964;50.428;19.218;2023-08-06T02:58:01;1002.5;;;18.3;82.8
41230;BME280;26964;50.428;19.218;2023-08-06T02:59:01;1002.5;;;18.3;82.8
41230;BME280;26964;50.428;19.218;2023-08-06T03:00:05;1002.5;;;18.3;82.8
41230;BME280;26964;50.428;19.218;2023-08-06T03:01:05;1002.5;;;18.3;82.8
41230;BME280;26964;50.428;19.218;2023-08-06T03:02:01;1002.5;;;18.3;82.8
41230;BME280;26964;50.428;19.218;2023-08-06T03:03:01;1002.5;;;18.3;82.8
41230;BME280;26964;50.428;19.218;2023-08-06T03:04:01;1002.5;;;18.3;82.7
41230;BME280;26964;50.428;19.218;2023-08-06T03:05:02;1002.5;;;18.3;82.8
41230;BME280;26964;50.428;19.218;2023-08-06T03:06:01;1002.6;;;18.3;82.7
41230;BME280;26964;50.428;19.218;2023-08-06T03:07:01;1002.5;;;18.4;82.8
41230;BME280;26964;50.428;19.218;2023-08-06T03:08:02;1002.5;;;18.4;82.8
41230;BME280;26964;50.428;19.218;2023-08-06T03:09:01;1002.5;;;18.4;82.8
41230;BME280;26964;50.428;19.218;2023-08-06T03:10:01;1002.4;;;18.4;82.8
41230;BME280;26964;50.428;19.218;2023-08-06T03:11:01;1002.3;;;18.4;82.8
41230;BME280;26964;50.428;19.218;2023-08-06T03:12:01;1002.4;;;18.4;82.8
41230;BME280;26964;50.428;19.218;2023-08-06T03:13:01;1002.4;;;18.4;82.8
41230;BME280;26964;50.428;19.218;2023-08-06T03:14:01;1002.2;;;18.4;82.8
41230;BME280;26964;50.428;19.218;2023-08-06T03:15:01;1002.3;;;18.4;82.8
41230;BME280;26964;50.428;19.218;2023-08-06T03:16:02;1002.3;;;18.4;82.7
41230;BME280;26964;50.428;19.218;2023-08-06T03:17:01;1002.3;;;18.4;82.7
41230;BME280;26964;50.428;19.218;2023-08-06T03:18:01;1002.4;;;18.4;82.7
41230;BME280;26964;50.428;19.218;2023-08-06T03:19:01;1002.4;;;18.4;82.7
41230;BME280;26964;50.428;19.218;2023-08-06T03:20:01;1002.4;;;18.4;82.7
41230;BME280;26964;50.428;19.218;2023-08-06T03:21:02;1002.4;;;18.4;82.7
41230;BME280;26964;50.428;19.218;2023-08-06T03:22:01;1002.3;;;18.4;82.7
41230;BME280;26964;50.428;19.218;2023-08-06T03:23:02;1002.4;;;18.4;82.7
41230;BME280;26964;50.428;19.218;2023-08-06T03:24:02;1002.2;;;18.4;82.7
41230;BME280;26964;50.428;19.218;2023-08-06T03:25:02;1002.3;;;18.4;82.7
41230;BME280;26964;50.428;19.218;2023-08-06T03:26:02;1002.2;;;18.4;82.7
41230;BME280;26964;50.428;19.218;2023-08-06T03:27:01;1002.3;;;18.4;82.7
41230;BME280;26964;50.428;19.218;2023-08-06T03:28:01;1002.3;;;18.4;82.7
41230;BME280;26964;50.428;19.218;2023-08-06T03:29:02;1002.3;;;18.4;82.7
41230;BME280;26964;50.428;19.218;2023-08-06T03:30:01;1002.3;;;18.4;82.7
41230;BME280;26964;50.428;19.218;2023-08-06T03:31:02;1002.2;;;18.4;82.7
41230;BME280;26964;50.428;19.218;2023-08-06T03:32:01;1002.2;;;18.4;82.7
41230;BME280;26964;50.428;19.218;2023-08-06T03:33:01;1002.2;;;18.4;82.7
41230;BME280;26964;50.428;19.218;2023-08-06T03:34:01;1002.1;;;18.4;82.7
41230;BME280;26964;50.428;19.218;2023-08-06T03:35:02;1002.2;;;18.4;82.7
41230;BME280;26964;50.428;19.218;2023-08-06T03:36:01;1002.3;;;18.4;82.7
41230;BME280;26964;50.428;19.218;2023-08-06T03:37:02;1002.3;;;18.4;82.7
41230;BME280;26964;50.428;19.218;2023-08-06T03:38:02;1002.1;;;18.4;82.7
41230;BME280;26964;50.428;19.218;2023-08-06T03:39:01;1002.1;;;18.4;82.7
41230;BME280;26964;50.428;19.218;2023-08-06T03:40:02;1002.1;;;18.4;82.7
41230;BME280;26964;50.428;19.218;2023-08-06T03:41:02;1002.0;;;18.4;82.7
41230;BME280;26964;50.428;19.218;2023-08-06T03:42:02;1002.1;;;18.4;82.7
41230;BME280;26964;50.428;19.218;2023-08-06T03:43:01;1002.0;;;18.4;82.7
41230;BME280;26964;50.428;19.218;2023-08-06T03:44:01;1002.0;;;18.4;82.7
41230;BME280;26964;50.428;19.218;2023-08-06T03:45:01;1002.0;;;18.4;82.7
41230;BME280;26964;50.428;19.218;2023-08-06T03:46:02;1002.0;;;18.4;82.8
41230;BME280;26964;50.428;19.218;2023-08-06T03:47:01;1002.0;;;18.4;82.8
41230;BME280;26964;50.428;19.218;2023-08-06T03:48:02;1002.0;;;18.4;82.8
41230;BME280;26964;50.428;19.218;2023-08-06T03:49:01;1002.0;;;18.4;82.8
41230;BME280;26964;50.428;19.218;2023-08-06T03:50:01;1002.0;;;18.4;82.8
41230;BME280;26964;50.428;19.218;2023-08-06T03:51:01;1002.0;;;18.4;82.8
41230;BME280;26964;50.428;19.218;2023-08-06T03:52:02;1001.9;;;18.4;82.8
41230;BME280;26964;50.428;19.218;2023-08-06T03:53:01;1001.9;;;18.4;82.8
41230;BME280;26964;50.428;19.218;2023-08-06T03:54:01;1001.8;;;18.4;82.8
41230;BME280;26964;50.428;19.218;2023-08-06T03:55:02;1001.9;;;18.4;82.8
41230;BME280;26964;50.428;19.218;2023-08-06T03:56:01;1001.9;;;18.4;82.8
41230;BME280;26964;50.428;19.218;2023-08-06T03:57:01;1001.8;;;18.4;82.8
41230;BME280;26964;50.428;19.218;2023-08-06T03:58:02;1001.8;;;18.4;82.8
41230;BME280;26964;50.428;19.218;2023-08-06T03:59:02;1001.8;;;18.5;82.8
41230;BME280;26964;50.428;19.218;2023-08-06T04:00:02;1001.7;;;18.5;82.8
41230;BME280;26964;50.428;19.218;2023-08-06T04:01:02;1001.7;;;18.5;82.8
41230;BME280;26964;50.428;19.218;2023-08-06T04:02:01;1001.7;;;18.5;82.7
41230;BME280;26964;50.428;19.218;2023-08-06T04:03:01;1001.7;;;18.5;82.7
41230;BME280;26964;50.428;19.218;2023-08-06T04:04:02;1001.6;;;18.5;82.7
41230;BME280;26964;50.428;19.218;2023-08-06T04:05:02;1001.7;;;18.5;82.7
41230;BME280;26964;50.428;19.218;2023-08-06T04:06:02;1001.7;;;18.5;82.7
41230;BME280;26964;50.428;19.218;2023-08-06T04:07:01;1001.8;;;18.5;82.7
41230;BME280;26964;50.428;19.218;2023-08-06T04:08:00;1001.8;;;18.5;82.7
41230;BME280;26964;50.428;19.218;2023-08-06T04:09:01;1001.8;;;18.5;82.7
41230;BME280;26964;50.428;19.218;2023-08-06T04:10:03;1001.8;;;18.5;82.7
41230;BME280;26964;50.428;19.218;2023-08-06T04:11:01;1001.8;;;18.5;82.7
41230;BME280;26964;50.428;19.218;2023-08-06T04:12:01;1001.7;;;18.5;82.7
41230;BME280;26964;50.428;19.218;2023-08-06T04:13:02;1001.8;;;18.5;82.7
41230;BME280;26964;50.428;19.218;2023-08-06T04:14:01;1001.8;;;18.5;82.6
41230;BME280;26964;50.428;19.218;2023-08-06T04:15:03;1001.8;;;18.5;82.7
41230;BME280;26964;50.428;19.218;2023-08-06T04:16:01;1001.8;;;18.5;82.6
41230;BME280;26964;50.428;19.218;2023-08-06T04:17:01;1001.8;;;18.6;82.7
41230;BME280;26964;50.428;19.218;2023-08-06T04:18:01;1001.7;;;18.5;82.7
41230;BME280;26964;50.428;19.218;2023-08-06T04:19:01;1001.7;;;18.6;82.7
41230;BME280;26964;50.428;19.218;2023-08-06T04:20:01;1001.7;;;18.6;82.7
41230;BME280;26964;50.428;19.218;2023-08-06T04:21:01;1001.7;;;18.6;82.7
41230;BME280;26964;50.428;19.218;2023-08-06T04:22:01;1001.7;;;18.6;82.7
41230;BME280;26964;50.428;19.218;2023-08-06T04:23:05;1001.7;;;18.6;82.7
41230;BME280;26964;50.428;19.218;2023-08-06T04:24:01;1001.7;;;18.6;82.7
41230;BME280;26964;50.428;19.218;2023-08-06T04:25:01;1001.7;;;18.6;82.7
41230;BME280;26964;50.428;19.218;2023-08-06T04:26:00;1001.7;;;18.6;82.7
41230;BME280;26964;50.428;19.218;2023-08-06T04:27:01;1001.7;;;18.6;82.7
41230;BME280;26964;50.428;19.218;2023-08-06T04:28:01;1001.7;;;18.7;82.7
41230;BME280;26964;50.428;19.218;2023-08-06T04:29:01;1001.7;;;18.7;82.7
41230;BME280;26964;50.428;19.218;2023-08-06T04:30:02;1001.7;;;18.7;82.7
41230;BME280;26964;50.428;19.218;2023-08-06T04:31:00;1001.8;;;18.7;82.6
41230;BME280;26964;50.428;19.218;2023-08-06T04:32:03;1001.7;;;18.7;82.6
41230;BME280;26964;50.428;19.218;2023-08-06T04:33:01;1001.8;;;18.7;82.6
41230;BME280;26964;50.428;19.218;2023-08-06T04:34:01;1001.7;;;18.7;82.6
41230;BME280;26964;50.428;19.218;2023-08-06T04:35:01;1001.6;;;18.7;82.6
41230;BME280;26964;50.428;19.218;2023-08-06T04:36:01;1001.7;;;18.7;82.6
41230;BME280;26964;50.428;19.218;2023-08-06T04:37:01;1001.7;;;18.7;82.6
41230;BME280;26964;50.428;19.218;2023-08-06T04:38:01;1001.6;;;18.7;82.6
41230;BME280;26964;50.428;19.218;2023-08-06T04:39:01;1001.6;;;18.7;82.6
41230;BME280;26964;50.428;19.218;2023-08-06T04:40:00;1001.6;;;18.7;82.6
41230;BME280;26964;50.428;19.218;2023-08-06T04:41:02;1001.6;;;18.7;82.6
41230;BME280;26964;50.428;19.218;2023-08-06T04:42:01;1001.6;;;18.7;82.6
41230;BME280;26964;50.428;19.218;2023-08-06T04:43:01;1001.6;;;18.7;82.6
41230;BME280;26964;50.428;19.218;2023-08-06T04:44:03;1001.6;;;18.7;82.6
41230;BME280;26964;50.428;19.218;2023-08-06T04:45:01;1001.6;;;18.7;82.6
41230;BME280;26964;50.428;19.218;2023-08-06T04:46:01;1001.6;;;18.8;82.6
41230;BME280;26964;50.428;19.218;2023-08-06T04:47:02;1001.6;;;18.8;82.6
41230;BME280;26964;50.428;19.218;2023-08-06T04:48:01;1001.6;;;18.8;82.6
41230;BME280;26964;50.428;19.218;2023-08-06T04:49:01;1001.6;;;18.8;82.6
41230;BME280;26964;50.428;19.218;2023-08-06T04:50:00;1001.5;;;18.8;82.6
41230;BME280;26964;50.428;19.218;2023-08-06T04:51:01;1001.5;;;18.8;82.6
41230;BME280;26964;50.428;19.218;2023-08-06T04:52:01;1001.4;;;18.8;82.6
41230;BME280;26964;50.428;19.218;2023-08-06T04:53:01;1001.5;;;18.8;82.7
41230;BME280;26964;50.428;19.218;2023-08-06T04:54:01;1001.4;;;18.8;82.7
41230;BME280;26964;50.428;19.218;2023-08-06T04:55:01;1001.4;;;18.8;82.7
41230;BME280;26964;50.428;19.218;2023-08-06T04:56:01;1001.4;;;18.8;82.6
41230;BME280;26964;50.428;19.218;2023-08-06T04:57:01;1001.4;;;18.8;82.6
41230;BME280;26964;50.428;19.218;2023-08-06T04:58:01;1001.4;;;18.8;82.6
41230;BME280;26964;50.428;19.218;2023-08-06T04:59:02;1001.4;;;18.8;82.6
41230;BME280;26964;50.428;19.218;2023-08-06T05:00:01;1001.4;;;18.8;82.6
41230;BME280;26964;50.428;19.218;2023-08-06T05:01:01;1001.5;;;18.8;82.6
41230;BME280;26964;50.428;19.218;2023-08-06T05:02:01;1001.4;;;18.8;82.6
41230;BME280;26964;50.428;19.218;2023-08-06T05:03:01;1001.4;;;18.8;82.6
41230;BME280;26964;50.428;19.218;2023-08-06T05:04:01;1001.4;;;18.8;82.6
41230;BME280;26964;50.428;19.218;2023-08-06T05:05:03;1001.3;;;18.8;82.6
41230;BME280;26964;50.428;19.218;2023-08-06T05:06:02;1001.4;;;18.8;82.6
41230;BME280;26964;50.428;19.218;2023-08-06T05:07:01;1001.3;;;18.8;82.6
41230;BME280;26964;50.428;19.218;2023-08-06T05:08:01;1001.3;;;18.8;82.6
41230;BME280;26964;50.428;19.218;2023-08-06T05:09:01;1001.4;;;18.8;82.6
41230;BME280;26964;50.428;19.218;2023-08-06T05:10:01;1001.4;;;18.8;82.6
41230;BME280;26964;50.428;19.218;2023-08-06T05:11:01;1001.4;;;18.8;82.6
41230;BME280;26964;50.428;19.218;2023-08-06T05:12:01;1001.3;;;18.8;82.6
41230;BME280;26964;50.428;19.218;2023-08-06T05:13:01;1001.3;;;18.8;82.5
41230;BME280;26964;50.428;19.218;2023-08-06T05:14:01;1001.3;;;18.8;82.5
41230;BME280;26964;50.428;19.218;2023-08-06T05:15:01;1001.2;;;18.8;82.6
41230;BME280;26964;50.428;19.218;2023-08-06T05:16:01;1001.3;;;18.8;82.6
41230;BME280;26964;50.428;19.218;2023-08-06T05:17:01;1001.2;;;18.9;82.6
41230;BME280;26964;50.428;19.218;2023-08-06T05:18:01;1001.2;;;18.9;82.6
41230;BME280;26964;50.428;19.218;2023-08-06T05:19:01;1001.2;;;18.9;82.6
41230;BME280;26964;50.428;19.218;2023-08-06T05:20:01;1001.2;;;18.9;82.6
41230;BME280;26964;50.428;19.218;2023-08-06T05:21:01;1001.2;;;18.9;82.6
41230;BME280;26964;50.428;19.218;2023-08-06T05:22:01;1001.2;;;18.9;82.6
41230;BME280;26964;50.428;19.218;2023-08-06T05:23:01;1001.0;;;18.9;82.6
41230;BME280;26964;50.428;19.218;2023-08-06T05:24:01;1001.0;;;18.9;82.6
41230;BME280;26964;50.428;19.218;2023-08-06T05:25:01;1001.0;;;18.9;82.6
41230;BME280;26964;50.428;19.218;2023-08-06T05:26:01;1001.0;;;18.9;82.6
41230;BME280;26964;50.428;19.218;2023-08-06T05:27:01;1001.0;;;18.9;82.6
41230;BME280;26964;50.428;19.218;2023-08-06T05:28:01;1000.9;;;18.9;82.6
41230;BME280;26964;50.428;19.218;2023-08-06T05:29:02;1001.0;;;18.9;82.6
41230;BME280;26964;50.428;19.218;2023-08-06T05:30:01;1001.0;;;18.9;82.6
41230;BME280;26964;50.428;19.218;2023-08-06T05:31:03;1000.9;;;18.9;82.6
41230;BME280;26964;50.428;19.218;2023-08-06T05:32:01;1000.8;;;18.9;82.6
41230;BME280;26964;50.428;19.218;2023-08-06T05:33:01;1000.9;;;18.9;82.6
41230;BME280;26964;50.428;19.218;2023-08-06T05:34:01;1000.9;;;18.9;82.6
41230;BME280;26964;50.428;19.218;2023-08-06T05:35:01;1000.9;;;18.9;82.6